Moreton Corbet and Lee Brockhurst, United Kingdom

9:19 AM BST on September 29, 2016 (GMT +0100)
Shawbury Air Base | | Change Station

Elev 249 ft 52.79 °N, 2.66 °W | Updated 29 minutes ago

Scattered Clouds
Scattered Clouds
57 °F
Feels Like 57 °F
N
16
Wind Variable Wind from WSW

Today
High -- | Low -- °F
--% Chance of Precip.
Yesterday
High -- | Low -- °F
Precip. -- in
Pressure 29.86 in
Visibility 6.2 miles
Clouds Few 2000 ft
Scattered Clouds 22000 ft
Dew Point 50 °F
Humidity 77%
Rainfall 0.00 in
Snow Depth Not available.
7:09 AM 6:51 PM
Waning Crescent, 3% visible
METAR EGOS 290750Z 24014KT 9999 FEW020 SCT220 14/10 Q1011 BLU BECMG 26015G25KT BLU
Pressure 29.86 in
Visibility 6.2 miles
Clouds Few 2000 ft
Scattered Clouds 22000 ft
Dew Point 50 °F
Humidity 77%
Rainfall 0.00 in
Snow Depth Not available.
7:09 AM 6:51 PM
Waning Crescent, 3% visible
METAR EGOS 290750Z 24014KT 9999 FEW020 SCT220 14/10 Q1011 BLU BECMG 26015G25KT BLU

10-Day Weather Forecast

×

Almanac

Astronomy

Sep. 29, 2016 Rise Set
Actual Time
Civil Twilight
Nautical Twilight
Astronomical Twilight
Moon
Length of Visible Light
Length of Day
Tomorrow will be .
, % of the Moon is Illuminated

Today's Extremes

Country Highs Country Lows

Community

WunderPhotos

Upload Photos

1,942,446 photos uploaded!

WunderBlog® & News

Nearby

Air Quality

  Air Quality AQ Index Pollutant
Not available.

Snow Depth

Station Depth Elevation

Earthquake Activity

City Distance Mag. Time & Date
Minimum magnitude displayed is 2.5.

Coastal Water Temperatures

Place Temperature

Stations

Nearby Weather Stations

Station Location Temp. Windchill Dew Point Humidity Wind Precip. Elev Updated Type